sensor_id;sensor_type;location;lat;lon;timestamp;pressure;altitude;pressure_sealevel;temperature;humidity
83027;BME280;72842;56.038;12.706;2024-01-25T00:00:19;100411.69;;;9.34;66.94
83027;BME280;72842;56.038;12.706;2024-01-25T00:02:44;100420.41;;;9.36;67.03
83027;BME280;72842;56.038;12.706;2024-01-25T00:05:10;100418.47;;;9.27;67.23
83027;BME280;72842;56.038;12.706;2024-01-25T00:07:47;100429.66;;;9.32;67.06
83027;BME280;72842;56.038;12.706;2024-01-25T00:10:13;100446.41;;;9.34;67.20
83027;BME280;72842;56.038;12.706;2024-01-25T00:12:40;100449.19;;;9.32;67.10
83027;BME280;72842;56.038;12.706;2024-01-25T00:15:06;100418.00;;;9.33;66.99
83027;BME280;72842;56.038;12.706;2024-01-25T00:17:32;100430.50;;;9.32;67.03
83027;BME280;72842;56.038;12.706;2024-01-25T00:19:57;100447.50;;;9.31;67.08
83027;BME280;72842;56.038;12.706;2024-01-25T00:22:22;100450.19;;;9.31;67.15
83027;BME280;72842;56.038;12.706;2024-01-25T00:24:48;100451.03;;;9.32;67.28
83027;BME280;72842;56.038;12.706;2024-01-25T00:27:13;100434.25;;;9.30;67.09
83027;BME280;72842;56.038;12.706;2024-01-25T00:29:39;100445.91;;;9.29;67.16
83027;BME280;72842;56.038;12.706;2024-01-25T00:32:04;100453.91;;;9.29;67.38
83027;BME280;72842;56.038;12.706;2024-01-25T00:34:30;100463.75;;;9.28;67.47
83027;BME280;72842;56.038;12.706;2024-01-25T00:36:56;100463.75;;;9.28;67.37
83027;BME280;72842;56.038;12.706;2024-01-25T00:39:21;100462.78;;;9.29;67.58
83027;BME280;72842;56.038;12.706;2024-01-25T00:41:51;100469.09;;;9.28;67.27
83027;BME280;72842;56.038;12.706;2024-01-25T00:44:17;100473.56;;;9.28;67.53
83027;BME280;72842;56.038;12.706;2024-01-25T00:46:42;100456.59;;;9.29;67.53
83027;BME280;72842;56.038;12.706;2024-01-25T00:49:08;100460.22;;;9.28;67.32
83027;BME280;72842;56.038;12.706;2024-01-25T00:51:34;100470.91;;;9.28;67.67
83027;BME280;72842;56.038;12.706;2024-01-25T00:54:01;100457.69;;;9.26;67.47
83027;BME280;72842;56.038;12.706;2024-01-25T00:56:28;100460.22;;;9.28;67.32
83027;BME280;72842;56.038;12.706;2024-01-25T00:58:54;100437.16;;;9.27;67.36
83027;BME280;72842;56.038;12.706;2024-01-25T01:01:21;100463.88;;;9.27;67.47
83027;BME280;72842;56.038;12.706;2024-01-25T01:03:48;100451.00;;;9.21;67.44
83027;BME280;72842;56.038;12.706;2024-01-25T01:06:21;100480.88;;;9.26;67.34
83027;BME280;72842;56.038;12.706;2024-01-25T01:08:47;100470.19;;;9.26;67.53
83027;BME280;72842;56.038;12.706;2024-01-25T01:11:12;100507.56;;;9.26;67.18
83027;BME280;72842;56.038;12.706;2024-01-25T01:13:38;100504.13;;;9.24;67.57
83027;BME280;72842;56.038;12.706;2024-01-25T01:16:03;100502.34;;;9.24;67.43
83027;BME280;72842;56.038;12.706;2024-01-25T01:18:29;100475.47;;;9.14;67.62
83027;BME280;72842;56.038;12.706;2024-01-25T01:20:54;100503.28;;;9.23;67.65
83027;BME280;72842;56.038;12.706;2024-01-25T01:23:20;100512.16;;;9.24;67.35
83027;BME280;72842;56.038;12.706;2024-01-25T01:25:45;100517.59;;;9.22;67.41
83027;BME280;72842;56.038;12.706;2024-01-25T01:28:11;100517.59;;;9.22;67.74
83027;BME280;72842;56.038;12.706;2024-01-25T01:30:36;100511.41;;;9.22;67.52
83027;BME280;72842;56.038;12.706;2024-01-25T01:33:02;100521.38;;;9.19;67.50
83027;BME280;72842;56.038;12.706;2024-01-25T01:35:27;100531.09;;;9.21;67.53
83027;BME280;72842;56.038;12.706;2024-01-25T01:37:53;100536.44;;;9.21;67.58
83027;BME280;72842;56.038;12.706;2024-01-25T01:40:18;100532.06;;;9.19;67.85
83027;BME280;72842;56.038;12.706;2024-01-25T01:42:43;100556.09;;;9.19;67.18
83027;BME280;72842;56.038;12.706;2024-01-25T01:45:11;100532.06;;;9.19;67.40
83027;BME280;72842;56.038;12.706;2024-01-25T01:47:37;100549.13;;;9.17;67.55
83027;BME280;72842;56.038;12.706;2024-01-25T01:50:04;100559.81;;;9.17;67.26
83027;BME280;72842;56.038;12.706;2024-01-25T01:52:30;100549.25;;;9.15;67.51
83027;BME280;72842;56.038;12.706;2024-01-25T01:54:56;100550.97;;;9.16;67.49
83027;BME280;72842;56.038;12.706;2024-01-25T01:57:21;100576.81;;;9.16;67.24
83027;BME280;72842;56.038;12.706;2024-01-25T01:59:47;100582.03;;;9.17;67.30
83027;BME280;72842;56.038;12.706;2024-01-25T02:02:14;100586.50;;;9.17;67.73
83027;BME280;72842;56.038;12.706;2024-01-25T02:04:39;100568.97;;;9.02;67.34
83027;BME280;72842;56.038;12.706;2024-01-25T02:07:05;100597.31;;;9.15;67.13
83027;BME280;72842;56.038;12.706;2024-01-25T02:09:31;100600.94;;;9.14;67.73
83027;BME280;72842;56.038;12.706;2024-01-25T02:12:03;100581.34;;;9.03;67.31
83027;BME280;72842;56.038;12.706;2024-01-25T02:14:30;100616.25;;;9.12;67.60
83027;BME280;72842;56.038;12.706;2024-01-25T02:16:56;100613.66;;;9.11;67.31
83027;BME280;72842;56.038;12.706;2024-01-25T02:19:22;100638.56;;;9.11;67.02
83027;BME280;72842;56.038;12.706;2024-01-25T02:21:47;100623.59;;;9.09;67.36
83027;BME280;72842;56.038;12.706;2024-01-25T02:24:14;100629.06;;;9.07;67.56
83027;BME280;72842;56.038;12.706;2024-01-25T02:26:40;100637.81;;;9.09;67.31
83027;BME280;72842;56.038;12.706;2024-01-25T02:29:05;100615.38;;;8.88;67.08
83027;BME280;72842;56.038;12.706;2024-01-25T02:31:33;100643.28;;;9.08;67.00
83027;BME280;72842;56.038;12.706;2024-01-25T02:33:58;100635.38;;;9.06;67.24
83027;BME280;72842;56.038;12.706;2024-01-25T02:36:24;100659.28;;;9.08;67.60
83027;BME280;72842;56.038;12.706;2024-01-25T02:38:49;100659.28;;;9.08;67.26
83027;BME280;72842;56.038;12.706;2024-01-25T02:41:15;100662.91;;;9.07;66.75
83027;BME280;72842;56.038;12.706;2024-01-25T02:43:40;100661.22;;;9.06;66.76
83027;BME280;72842;56.038;12.706;2024-01-25T02:46:07;100672.84;;;9.05;67.16
83027;BME280;72842;56.038;12.706;2024-01-25T02:48:32;100673.81;;;9.04;67.19
83027;BME280;72842;56.038;12.706;2024-01-25T02:50:58;100693.34;;;9.04;67.06
83027;BME280;72842;56.038;12.706;2024-01-25T02:53:23;100698.69;;;9.04;67.47
83027;BME280;72842;56.038;12.706;2024-01-25T02:55:48;100703.28;;;9.02;66.90
83027;BME280;72842;56.038;12.706;2024-01-25T02:58:14;100695.28;;;9.02;67.11
83027;BME280;72842;56.038;12.706;2024-01-25T03:00:39;100701.59;;;9.01;67.01
83027;BME280;72842;56.038;12.706;2024-01-25T03:03:05;100700.44;;;8.93;67.40
83027;BME280;72842;56.038;12.706;2024-01-25T03:05:30;100694.13;;;8.94;66.99
83027;BME280;72842;56.038;12.706;2024-01-25T03:07:56;100709.91;;;8.97;67.03
83027;BME280;72842;56.038;12.706;2024-01-25T03:10:21;100706.41;;;8.96;66.86
83027;BME280;72842;56.038;12.706;2024-01-25T03:12:47;100715.38;;;8.95;67.14
83027;BME280;72842;56.038;12.706;2024-01-25T03:15:12;100728.81;;;8.94;67.16
83027;BME280;72842;56.038;12.706;2024-01-25T03:17:37;100732.34;;;8.94;67.08
83027;BME280;72842;56.038;12.706;2024-01-25T03:20:03;100738.66;;;8.93;66.82
83027;BME280;72842;56.038;12.706;2024-01-25T03:22:29;100750.25;;;8.92;66.95
83027;BME280;72842;56.038;12.706;2024-01-25T03:24:54;100751.16;;;8.93;66.82
83027;BME280;72842;56.038;12.706;2024-01-25T03:27:20;100760.19;;;8.90;66.99
83027;BME280;72842;56.038;12.706;2024-01-25T03:29:45;100753.91;;;8.91;66.95
83027;BME280;72842;56.038;12.706;2024-01-25T03:32:11;100737.59;;;8.70;66.81
83027;BME280;72842;56.038;12.706;2024-01-25T03:34:36;100792.22;;;8.90;66.96
83027;BME280;72842;56.038;12.706;2024-01-25T03:37:02;100788.06;;;8.86;66.82
83027;BME280;72842;56.038;12.706;2024-01-25T03:39:28;100792.34;;;8.88;66.93
83027;BME280;72842;56.038;12.706;2024-01-25T03:41:53;100798.97;;;8.83;66.88
83027;BME280;72842;56.038;12.706;2024-01-25T03:44:18;100804.84;;;8.88;66.85
83027;BME280;72842;56.038;12.706;2024-01-25T03:46:44;100803.31;;;8.84;66.79
83027;BME280;72842;56.038;12.706;2024-01-25T03:49:09;100820.97;;;8.86;66.90
83027;BME280;72842;56.038;12.706;2024-01-25T03:51:35;100821.81;;;8.87;66.76
83027;BME280;72842;56.038;12.706;2024-01-25T03:54:00;100823.63;;;8.86;66.73
83027;BME280;72842;56.038;12.706;2024-01-25T03:56:25;100829.91;;;8.85;66.96
83027;BME280;72842;56.038;12.706;2024-01-25T03:58:52;100844.22;;;8.84;66.76
83027;BME280;72842;56.038;12.706;2024-01-25T04:01:17;100846.03;;;8.84;66.84
83027;BME280;72842;56.038;12.706;2024-01-25T04:03:43;100838.13;;;8.82;67.08
83027;BME280;72842;56.038;12.706;2024-01-25T04:06:09;100846.13;;;8.82;66.98
83027;BME280;72842;56.038;12.706;2024-01-25T04:08:34;100855.09;;;8.81;66.54
83027;BME280;72842;56.038;12.706;2024-01-25T04:11:00;100859.59;;;8.81;66.70
83027;BME280;72842;56.038;12.706;2024-01-25T04:13:25;100851.91;;;8.76;66.83
83027;BME280;72842;56.038;12.706;2024-01-25T04:15:51;100867.69;;;8.79;66.70
83027;BME280;72842;56.038;12.706;2024-01-25T04:18:16;100872.16;;;8.79;66.72
83027;BME280;72842;56.038;12.706;2024-01-25T04:20:42;100865.13;;;8.78;66.73
83027;BME280;72842;56.038;12.706;2024-01-25T04:23:08;100880.59;;;8.73;66.96
83027;BME280;72842;56.038;12.706;2024-01-25T04:25:33;100874.19;;;8.75;66.60
83027;BME280;72842;56.038;12.706;2024-01-25T04:27:59;100890.09;;;8.77;66.78
83027;BME280;72842;56.038;12.706;2024-01-25T04:30:25;100898.09;;;8.77;66.82
83027;BME280;72842;56.038;12.706;2024-01-25T04:32:50;100893.72;;;8.76;66.53
83027;BME280;72842;56.038;12.706;2024-01-25T04:35:16;100911.44;;;8.77;66.70
83027;BME280;72842;56.038;12.706;2024-01-25T04:37:41;100905.84;;;8.67;66.67
83027;BME280;72842;56.038;12.706;2024-01-25T04:40:07;100914.34;;;8.74;66.64
83027;BME280;72842;56.038;12.706;2024-01-25T04:42:33;100920.59;;;8.73;66.77
83027;BME280;72842;56.038;12.706;2024-01-25T04:44:58;100927.75;;;8.72;66.71
83027;BME280;72842;56.038;12.706;2024-01-25T04:47:24;100932.34;;;8.70;66.61
83027;BME280;72842;56.038;12.706;2024-01-25T04:49:49;100929.69;;;8.70;66.56
83027;BME280;72842;56.038;12.706;2024-01-25T04:52:15;100920.81;;;8.70;66.84
83027;BME280;72842;56.038;12.706;2024-01-25T04:54:40;100926.28;;;8.68;66.73
83027;BME280;72842;56.038;12.706;2024-01-25T04:57:06;100917.81;;;8.61;66.37
83027;BME280;72842;56.038;12.706;2024-01-25T04:59:35;100950.38;;;8.67;66.76
83027;BME280;72842;56.038;12.706;2024-01-25T05:02:01;100953.88;;;8.67;66.67
83027;BME280;72842;56.038;12.706;2024-01-25T05:04:28;100953.03;;;8.67;66.71
83027;BME280;72842;56.038;12.706;2024-01-25T05:06:54;100975.34;;;8.65;66.80
83027;BME280;72842;56.038;12.706;2024-01-25T05:09:20;100970.00;;;8.65;66.48
83027;BME280;72842;56.038;12.706;2024-01-25T05:11:46;100979.81;;;8.65;66.60
83027;BME280;72842;56.038;12.706;2024-01-25T05:14:11;101005.75;;;8.63;66.63
83027;BME280;72842;56.038;12.706;2024-01-25T05:16:37;100992.53;;;8.61;66.29
83027;BME280;72842;56.038;12.706;2024-01-25T05:19:02;100994.22;;;8.62;66.58
83027;BME280;72842;56.038;12.706;2024-01-25T05:21:27;101003.19;;;8.61;66.41
83027;BME280;72842;56.038;12.706;2024-01-25T05:23:53;100996.88;;;8.62;66.51
83027;BME280;72842;56.038;12.706;2024-01-25T05:26:18;101026.22;;;8.62;66.36
83027;BME280;72842;56.038;12.706;2024-01-25T05:28:44;101025.56;;;8.59;66.80
83027;BME280;72842;56.038;12.706;2024-01-25T05:31:10;101043.09;;;8.63;66.40
83027;BME280;72842;56.038;12.706;2024-01-25T05:33:40;101031.56;;;8.62;66.34
83027;BME280;72842;56.038;12.706;2024-01-25T05:36:06;101039.47;;;8.64;66.53
83027;BME280;72842;56.038;12.706;2024-01-25T05:38:32;101057.28;;;8.63;66.23
83027;BME280;72842;56.038;12.706;2024-01-25T05:40:58;101065.41;;;8.62;66.25
83027;BME280;72842;56.038;12.706;2024-01-25T05:43:23;101069.09;;;8.59;66.30
83027;BME280;72842;56.038;12.706;2024-01-25T05:45:49;101074.91;;;8.66;66.29
83027;BME280;72842;56.038;12.706;2024-01-25T05:48:15;101056.25;;;8.52;66.37
83027;BME280;72842;56.038;12.706;2024-01-25T05:50:40;101078.53;;;8.65;66.26
83027;BME280;72842;56.038;12.706;2024-01-25T05:53:07;101084.72;;;8.65;66.48
83027;BME280;72842;56.038;12.706;2024-01-25T05:55:32;101086.06;;;8.58;66.32
83027;BME280;72842;56.038;12.706;2024-01-25T05:57:58;101095.59;;;8.62;66.31
83027;BME280;72842;56.038;12.706;2024-01-25T06:00:23;101095.38;;;8.65;66.13
83027;BME280;72842;56.038;12.706;2024-01-25T06:02:48;101122.06;;;8.65;66.38
83027;BME280;72842;56.038;12.706;2024-01-25T06:05:14;101128.25;;;8.66;66.27
83027;BME280;72842;56.038;12.706;2024-01-25T06:07:39;101128.19;;;8.68;66.33
83027;BME280;72842;56.038;12.706;2024-01-25T06:10:06;101148.63;;;8.67;66.02
83027;BME280;72842;56.038;12.706;2024-01-25T06:12:32;101140.63;;;8.67;66.37
83027;BME280;72842;56.038;12.706;2024-01-25T06:14:58;101149.59;;;8.66;66.16
83027;BME280;72842;56.038;12.706;2024-01-25T06:17:23;101167.31;;;8.67;66.24
83027;BME280;72842;56.038;12.706;2024-01-25T06:19:48;101161.13;;;8.67;66.39
83027;BME280;72842;56.038;12.706;2024-01-25T06:22:14;101175.31;;;8.67;66.10
83027;BME280;72842;56.038;12.706;2024-01-25T06:24:42;101167.63;;;8.62;66.27
83027;BME280;72842;56.038;12.706;2024-01-25T06:27:09;101168.28;;;8.66;66.08
83027;BME280;72842;56.038;12.706;2024-01-25T06:29:34;101192.22;;;8.68;66.34
83027;BME280;72842;56.038;12.706;2024-01-25T06:32:00;101169.97;;;8.67;66.13
83027;BME280;72842;56.038;12.706;2024-01-25T06:34:25;101199.31;;;8.67;66.19
83027;BME280;72842;56.038;12.706;2024-01-25T06:36:51;101206.47;;;8.67;66.17
83027;BME280;72842;56.038;12.706;2024-01-25T06:39:16;101211.81;;;8.67;66.28
83027;BME280;72842;56.038;12.706;2024-01-25T06:41:41;101219.91;;;8.65;66.40
83027;BME280;72842;56.038;12.706;2024-01-25T06:44:07;101211.91;;;8.65;66.00
83027;BME280;72842;56.038;12.706;2024-01-25T06:46:32;101226.09;;;8.65;66.05
83027;BME280;72842;56.038;12.706;2024-01-25T06:48:58;101227.16;;;8.63;66.44
83027;BME280;72842;56.038;12.706;2024-01-25T06:51:23;101234.31;;;8.62;66.26
83027;BME280;72842;56.038;12.706;2024-01-25T06:53:49;101239.72;;;8.61;66.40
83027;BME280;72842;56.038;12.706;2024-01-25T06:56:15;101251.47;;;8.58;66.34
83027;BME280;72842;56.038;12.706;2024-01-25T06:58:40;101253.94;;;8.61;66.00
83027;BME280;72842;56.038;12.706;2024-01-25T07:01:05;101260.22;;;8.60;66.30
83027;BME280;72842;56.038;12.706;2024-01-25T07:03:31;101266.41;;;8.61;66.13
83027;BME280;72842;56.038;12.706;2024-01-25T07:05:57;101282.41;;;8.61;66.10
83027;BME280;72842;56.038;12.706;2024-01-25T07:08:22;101274.88;;;8.53;66.22
83027;BME280;72842;56.038;12.706;2024-01-25T07:10:49;101293.19;;;8.59;66.40
83027;BME280;72842;56.038;12.706;2024-01-25T07:13:14;101309.19;;;8.59;66.27
83027;BME280;72842;56.038;12.706;2024-01-25T07:15:40;101305.75;;;8.57;66.66
83027;BME280;72842;56.038;12.706;2024-01-25T07:18:06;101314.81;;;8.55;65.82
83027;BME280;72842;56.038;12.706;2024-01-25T07:20:31;101328.91;;;8.57;66.23
83027;BME280;72842;56.038;12.706;2024-01-25T07:22:56;101331.69;;;8.55;66.38
83027;BME280;72842;56.038;12.706;2024-01-25T07:25:22;101341.41;;;8.56;66.59
83027;BME280;72842;56.038;12.706;2024-01-25T07:27:48;101336.06;;;8.56;66.31
83027;BME280;72842;56.038;12.706;2024-01-25T07:30:14;101357.22;;;8.59;66.59
83027;BME280;72842;56.038;12.706;2024-01-25T07:32:40;101365.22;;;8.59;66.76
83027;BME280;72842;56.038;12.706;2024-01-25T07:35:09;101369.59;;;8.60;66.39
83027;BME280;72842;56.038;12.706;2024-01-25T07:37:37;101376.66;;;8.61;66.62
83027;BME280;72842;56.038;12.706;2024-01-25T07:40:03;101368.66;;;8.61;66.89
83027;BME280;72842;56.038;12.706;2024-01-25T07:42:32;101390.78;;;8.63;66.74
83027;BME280;72842;56.038;12.706;2024-01-25T07:44:58;101385.34;;;8.65;66.81
83027;BME280;72842;56.038;12.706;2024-01-25T07:47:23;101389.72;;;8.66;67.18
83027;BME280;72842;56.038;12.706;2024-01-25T07:49:49;101400.38;;;8.66;66.58
83027;BME280;72842;56.038;12.706;2024-01-25T07:52:14;101386.44;;;8.61;67.08
83027;BME280;72842;56.038;12.706;2024-01-25T07:54:40;101409.19;;;8.68;66.81
83027;BME280;72842;56.038;12.706;2024-01-25T07:57:05;101407.44;;;8.67;66.92
83027;BME280;72842;56.038;12.706;2024-01-25T07:59:30;101409.97;;;8.54;67.09
83027;BME280;72842;56.038;12.706;2024-01-25T08:01:56;101434.81;;;8.71;67.42
83027;BME280;72842;56.038;12.706;2024-01-25T08:04:21;101433.00;;;8.71;67.16
83027;BME280;72842;56.038;12.706;2024-01-25T08:06:47;101433.84;;;8.72;67.18
83027;BME280;72842;56.038;12.706;2024-01-25T08:09:12;101439.09;;;8.73;67.15
83027;BME280;72842;56.038;12.706;2024-01-25T08:11:38;101439.09;;;8.73;67.29
83027;BME280;72842;56.038;12.706;2024-01-25T08:14:03;101441.09;;;8.70;67.33
83027;BME280;72842;56.038;12.706;2024-01-25T08:16:29;101446.25;;;8.73;67.00
83027;BME280;72842;56.038;12.706;2024-01-25T08:18:55;101436.72;;;8.69;67.54
83027;BME280;72842;56.038;12.706;2024-01-25T08:21:20;101460.44;;;8.73;67.17
83027;BME280;72842;56.038;12.706;2024-01-25T08:23:46;101469.34;;;8.74;67.23
83027;BME280;72842;56.038;12.706;2024-01-25T08:26:12;101481.78;;;8.73;67.33
83027;BME280;72842;56.038;12.706;2024-01-25T08:28:42;101495.06;;;8.75;67.24
83027;BME280;72842;56.038;12.706;2024-01-25T08:31:10;101494.22;;;8.74;67.21
83027;BME280;72842;56.038;12.706;2024-01-25T08:33:36;101498.50;;;8.77;67.44
83027;BME280;72842;56.038;12.706;2024-01-25T08:36:02;101502.03;;;8.77;67.11
83027;BME280;72842;56.038;12.706;2024-01-25T08:38:28;101505.44;;;8.79;67.32
83027;BME280;72842;56.038;12.706;2024-01-25T08:40:53;101508.97;;;8.80;67.24
83027;BME280;72842;56.038;12.706;2024-01-25T08:43:19;101507.25;;;8.79;67.37
83027;BME280;72842;56.038;12.706;2024-01-25T08:45:45;101496.53;;;8.80;67.47
83027;BME280;72842;56.038;12.706;2024-01-25T08:48:10;101494.72;;;8.81;67.35
83027;BME280;72842;56.038;12.706;2024-01-25T08:50:36;101512.53;;;8.80;66.91
83027;BME280;72842;56.038;12.706;2024-01-25T08:53:02;101513.41;;;8.81;67.08
83027;BME280;72842;56.038;12.706;2024-01-25T08:55:27;101524.81;;;8.83;67.14
83027;BME280;72842;56.038;12.706;2024-01-25T08:57:52;101525.59;;;8.85;67.34
83027;BME280;72842;56.038;12.706;2024-01-25T09:00:18;101533.88;;;8.80;67.24
83027;BME280;72842;56.038;12.706;2024-01-25T09:02:43;101554.00;;;8.86;67.14
83027;BME280;72842;56.038;12.706;2024-01-25T09:05:10;101559.28;;;8.87;67.13
83027;BME280;72842;56.038;12.706;2024-01-25T09:07:35;101566.22;;;8.90;67.12
83027;BME280;72842;56.038;12.706;2024-01-25T09:10:01;101582.09;;;8.93;66.93
83027;BME280;72842;56.038;12.706;2024-01-25T09:12:27;101590.00;;;8.95;66.66
83027;BME280;72842;56.038;12.706;2024-01-25T09:14:52;101594.38;;;8.96;66.78
83027;BME280;72842;56.038;12.706;2024-01-25T09:17:17;101602.28;;;8.97;66.74
83027;BME280;72842;56.038;12.706;2024-01-25T09:19:48;101601.44;;;8.97;66.65
83027;BME280;72842;56.038;12.706;2024-01-25T09:22:15;101614.88;;;8.95;66.59
83027;BME280;72842;56.038;12.706;2024-01-25T09:24:43;101620.63;;;9.03;66.63
83027;BME280;72842;56.038;12.706;2024-01-25T09:27:09;101623.31;;;9.03;66.82
83027;BME280;72842;56.038;12.706;2024-01-25T09:29:34;101635.63;;;9.06;66.56
83027;BME280;72842;56.038;12.706;2024-01-25T09:31:59;101642.59;;;9.08;66.70
83027;BME280;72842;56.038;12.706;2024-01-25T09:34:25;101651.03;;;9.16;66.68
83027;BME280;72842;56.038;12.706;2024-01-25T09:36:51;101638.38;;;9.20;66.10
83027;BME280;72842;56.038;12.706;2024-01-25T09:39:17;101663.75;;;9.43;66.03
83027;BME280;72842;56.038;12.706;2024-01-25T09:41:43;101660.41;;;9.69;65.24
83027;BME280;72842;56.038;12.706;2024-01-25T09:44:09;101666.09;;;9.93;65.09
83027;BME280;72842;56.038;12.706;2024-01-25T09:46:35;101663.66;;;10.19;65.24
83027;BME280;72842;56.038;12.706;2024-01-25T09:49:01;101670.09;;;10.45;63.92
83027;BME280;72842;56.038;12.706;2024-01-25T09:51:31;101668.47;;;10.71;63.99
83027;BME280;72842;56.038;12.706;2024-01-25T09:53:59;101671.56;;;10.92;63.53
83027;BME280;72842;56.038;12.706;2024-01-25T09:56:26;101682.19;;;11.07;63.65
83027;BME280;72842;56.038;12.706;2024-01-25T09:58:53;101689.66;;;11.29;63.53
83027;BME280;72842;56.038;12.706;2024-01-25T10:01:19;101690.69;;;11.41;62.55
83027;BME280;72842;56.038;12.706;2024-01-25T10:03:45;101688.03;;;11.54;62.83
83027;BME280;72842;56.038;12.706;2024-01-25T10:06:15;101695.81;;;11.71;62.16
83027;BME280;72842;56.038;12.706;2024-01-25T10:08:41;101699.31;;;11.86;61.45
83027;BME280;72842;56.038;12.706;2024-01-25T10:11:07;101678.53;;;11.90;61.59
83027;BME280;72842;56.038;12.706;2024-01-25T10:13:45;101698.31;;;12.14;60.84
83027;BME280;72842;56.038;12.706;2024-01-25T10:16:15;101695.63;;;12.27;61.36
83027;BME280;72842;56.038;12.706;2024-01-25T10:18:45;101708.09;;;12.40;60.31
83027;BME280;72842;56.038;12.706;2024-01-25T10:21:11;101709.91;;;12.53;60.34
83027;BME280;72842;56.038;12.706;2024-01-25T10:23:40;101711.50;;;12.68;60.37
83027;BME280;72842;56.038;12.706;2024-01-25T10:26:08;101717.72;;;12.81;60.08
83027;BME280;72842;56.038;12.706;2024-01-25T10:28:33;101723.28;;;12.91;59.78
83027;BME280;72842;56.038;12.706;2024-01-25T10:31:02;101735.09;;;13.01;59.54
83027;BME280;72842;56.038;12.706;2024-01-25T10:33:30;101732.28;;;13.15;59.30
83027;BME280;72842;56.038;12.706;2024-01-25T10:35:56;101737.84;;;13.25;59.01
83027;BME280;72842;56.038;12.706;2024-01-25T10:38:30;101745.13;;;13.36;58.73
83027;BME280;72842;56.038;12.706;2024-01-25T10:40:59;101743.84;;;13.41;58.50
83027;BME280;72842;56.038;12.706;2024-01-25T10:43:27;101743.50;;;13.46;58.16
83027;BME280;72842;56.038;12.706;2024-01-25T10:45:52;101771.22;;;13.59;58.06
83027;BME280;72842;56.038;12.706;2024-01-25T10:48:21;101771.59;;;13.66;58.14
83027;BME280;72842;56.038;12.706;2024-01-25T10:50:47;101783.63;;;13.73;57.88
83027;BME280;72842;56.038;12.706;2024-01-25T10:53:15;101785.13;;;13.77;57.84
83027;BME280;72842;56.038;12.706;2024-01-25T10:55:41;101790.38;;;13.79;57.48
83027;BME280;72842;56.038;12.706;2024-01-25T10:58:07;101801.75;;;13.82;57.41
83027;BME280;72842;56.038;12.706;2024-01-25T11:00:36;101806.81;;;13.87;57.37
83027;BME280;72842;56.038;12.706;2024-01-25T11:03:02;101807.44;;;13.90;57.47
83027;BME280;72842;56.038;12.706;2024-01-25T11:05:30;101817.97;;;13.93;57.49
83027;BME280;72842;56.038;12.706;2024-01-25T11:07:55;101819.59;;;13.96;57.37
83027;BME280;72842;56.038;12.706;2024-01-25T11:10:24;101818.63;;;13.97;56.98
83027;BME280;72842;56.038;12.706;2024-01-25T11:15:21;101835.50;;;13.99;57.06
83027;BME280;72842;56.038;12.706;2024-01-25T11:17:53;101835.38;;;14.00;57.22
83027;BME280;72842;56.038;12.706;2024-01-25T11:20:24;101829.00;;;14.01;57.05
83027;BME280;72842;56.038;12.706;2024-01-25T11:22:55;101842.47;;;14.01;56.69
83027;BME280;72842;56.038;12.706;2024-01-25T11:25:21;101831.22;;;13.96;57.21
83027;BME280;72842;56.038;12.706;2024-01-25T11:27:49;101854.75;;;14.06;57.15
83027;BME280;72842;56.038;12.706;2024-01-25T11:30:18;101864.44;;;14.08;57.21
83027;BME280;72842;56.038;12.706;2024-01-25T11:32:46;101838.84;;;14.02;57.02
83027;BME280;72842;56.038;12.706;2024-01-25T11:35:12;101853.75;;;14.07;57.04
83027;BME280;72842;56.038;12.706;2024-01-25T11:37:45;101854.00;;;14.03;56.78
83027;BME280;72842;56.038;12.706;2024-01-25T11:40:11;101851.06;;;14.07;56.98
83027;BME280;72842;56.038;12.706;2024-01-25T11:42:37;101857.31;;;14.07;57.08
83027;BME280;72842;56.038;12.706;2024-01-25T11:45:04;101862.06;;;14.03;56.87
83027;BME280;72842;56.038;12.706;2024-01-25T11:47:30;101868.94;;;14.08;57.10
83027;BME280;72842;56.038;12.706;2024-01-25T11:49:56;101876.16;;;14.07;56.86
83027;BME280;72842;56.038;12.706;2024-01-25T11:52:21;101881.53;;;14.07;57.06
83027;BME280;72842;56.038;12.706;2024-01-25T11:54:47;101856.88;;;13.89;57.04
83027;BME280;72842;56.038;12.706;2024-01-25T11:57:12;101896.09;;;14.04;56.89
83027;BME280;72842;56.038;12.706;2024-01-25T11:59:38;101904.28;;;14.03;56.93
83027;BME280;72842;56.038;12.706;2024-01-25T12:02:03;101894.81;;;13.97;56.91
83027;BME280;72842;56.038;12.706;2024-01-25T12:04:29;101905.34;;;14.00;56.76
83027;BME280;72842;56.038;12.706;2024-01-25T12:06:55;101909.88;;;14.00;56.55
83027;BME280;72842;56.038;12.706;2024-01-25T12:09:20;101899.69;;;13.92;56.89
83027;BME280;72842;56.038;12.706;2024-01-25T12:11:49;101909.25;;;13.96;56.70
83027;BME280;72842;56.038;12.706;2024-01-25T12:14:16;101911.72;;;13.99;56.48
83027;BME280;72842;56.038;12.706;2024-01-25T12:16:41;101912.69;;;13.98;56.61
83027;BME280;72842;56.038;12.706;2024-01-25T12:19:07;101907.56;;;13.95;56.82
83027;BME280;72842;56.038;12.706;2024-01-25T12:21:33;101904.94;;;13.94;56.76
83027;BME280;72842;56.038;12.706;2024-01-25T12:23:59;101909.47;;;13.93;56.96
83027;BME280;72842;56.038;12.706;2024-01-25T12:26:24;101918.53;;;13.92;56.96
83027;BME280;72842;56.038;12.706;2024-01-25T12:28:50;101919.63;;;13.90;56.96
83027;BME280;72842;56.038;12.706;2024-01-25T12:31:15;101900.47;;;13.82;56.82
83027;BME280;72842;56.038;12.706;2024-01-25T12:33:41;101906.69;;;13.82;57.10
83027;BME280;72842;56.038;12.706;2024-01-25T12:36:07;101908.44;;;13.83;56.75
83027;BME280;72842;56.038;12.706;2024-01-25T12:38:32;101911.88;;;13.85;57.09
83027;BME280;72842;56.038;12.706;2024-01-25T12:41:00;101917.38;;;13.84;56.94
83027;BME280;72842;56.038;12.706;2024-01-25T12:43:26;101915.75;;;13.81;57.03